createdAt,value
2023-01-13T00:00:07.022Z,19.13
2023-01-13T00:03:08.680Z,17.65
2023-01-13T00:06:13.160Z,14.82
2023-01-13T00:09:14.752Z,16.03
2023-01-13T00:12:16.448Z,17.75
2023-01-13T00:15:18.081Z,17.73
2023-01-13T00:18:19.640Z,16.35
2023-01-13T00:21:23.436Z,17.52
2023-01-13T00:24:25.145Z,17.27
2023-01-13T00:27:26.773Z,17.50
2023-01-13T00:30:28.373Z,17.03
2023-01-13T00:33:29.916Z,18.95
2023-01-13T00:36:31.744Z,17.45
2023-01-13T00:39:36.619Z,15.53
2023-01-13T00:42:56.532Z,17.73
2023-01-13T00:45:58.236Z,16.88
2023-01-13T00:48:59.825Z,17.38
2023-01-13T00:52:01.447Z,15.40
2023-01-13T00:55:06.903Z,15.88
2023-01-13T00:58:11.534Z,15.70
2023-01-13T01:01:18.266Z,17.57
2023-01-13T01:04:19.943Z,15.45
2023-01-13T01:07:21.502Z,15.05
2023-01-13T01:10:26.371Z,14.17
2023-01-13T01:13:31.878Z,15.50
2023-01-13T01:16:33.700Z,14.07
2023-01-13T01:19:37.548Z,12.57
2023-01-13T01:22:39.117Z,12.43
2023-01-13T01:25:40.723Z,13.02
2023-01-13T01:28:42.582Z,12.05
2023-01-13T01:31:44.260Z,13.63
2023-01-13T01:34:45.911Z,11.55
2023-01-13T01:37:47.476Z,10.98
2023-01-13T01:40:52.667Z,11.65
2023-01-13T01:44:01.669Z,11.50
2023-01-13T01:47:03.281Z,14.80
2023-01-13T01:50:05.221Z,11.15
2023-01-13T01:53:11.927Z,12.40
2023-01-13T01:56:16.650Z,12.63
2023-01-13T01:59:22.178Z,11.70
2023-01-13T02:02:23.828Z,12.27
2023-01-13T02:05:25.448Z,10.18
2023-01-13T02:08:27.075Z,10.35
2023-01-13T02:11:55.932Z,12.48
2023-01-13T02:15:06.300Z,9.87
2023-01-13T02:18:35.843Z,10.65
2023-01-13T02:21:59.109Z,11.20
2023-01-13T02:25:25.549Z,11.33
2023-01-13T02:29:23.637Z,10.55
2023-01-13T02:33:07.925Z,10.68
2023-01-13T02:36:11.849Z,12.20
2023-01-13T02:39:22.912Z,11.10
2023-01-13T02:42:49.660Z,9.82
2023-01-13T02:45:53.780Z,12.63
2023-01-13T02:48:55.931Z,11.67
2023-01-13T02:52:00.835Z,9.52
2023-01-13T02:55:12.253Z,10.18
2023-01-13T02:58:18.653Z,10.00
2023-01-13T03:01:20.399Z,9.75
2023-01-13T03:04:46.436Z,9.30
2023-01-13T03:07:53.404Z,9.48
2023-01-13T03:11:14.922Z,8.37
2023-01-13T03:14:33.903Z,10.75
2023-01-13T03:18:04.660Z,10.25
2023-01-13T03:21:21.266Z,10.03
2023-01-13T03:24:26.051Z,9.95
2023-01-13T03:27:46.037Z,10.10
2023-01-13T03:30:53.999Z,12.45
2023-01-13T03:33:57.928Z,9.57
2023-01-13T03:36:59.873Z,9.50
2023-01-13T03:40:05.011Z,12.50
2023-01-13T03:43:28.121Z,12.00
2023-01-13T03:46:51.028Z,12.18
2023-01-13T03:50:23.565Z,10.90
2023-01-13T03:53:34.173Z,10.03
2023-01-13T03:56:48.087Z,12.07
2023-01-13T03:59:54.499Z,14.93
2023-01-13T04:03:04.530Z,14.52
2023-01-13T04:06:40.708Z,18.27
2023-01-13T04:09:52.665Z,16.02
2023-01-13T04:13:06.089Z,12.38
2023-01-13T04:16:08.045Z,17.57
2023-01-13T04:19:09.739Z,21.35
2023-01-13T04:22:11.391Z,19.73
2023-01-13T04:25:12.979Z,17.58
2023-01-13T04:28:19.195Z,16.67
2023-01-13T04:31:21.081Z,15.70
2023-01-13T04:34:22.705Z,13.05
2023-01-13T04:37:24.307Z,12.77
2023-01-13T04:40:25.907Z,14.38
2023-01-13T04:43:27.621Z,10.05
2023-01-13T04:46:33.396Z,11.02
2023-01-13T04:49:35.100Z,12.05
2023-01-13T04:52:36.748Z,11.60
2023-01-13T04:55:38.409Z,11.57
2023-01-13T04:58:42.845Z,10.97
2023-01-13T05:01:44.522Z,11.07
2023-01-13T05:04:47.329Z,12.68
2023-01-13T05:07:48.994Z,11.63
2023-01-13T05:10:50.653Z,10.75
2023-01-13T05:14:10.864Z,10.57
2023-01-13T05:17:22.948Z,9.25
2023-01-13T05:20:24.680Z,12.90
2023-01-13T05:23:44.993Z,17.38
2023-01-13T05:26:46.603Z,25.35
2023-01-13T05:29:52.381Z,28.17
2023-01-13T05:32:54.075Z,25.77
2023-01-13T05:35:55.656Z,16.05
2023-01-13T05:38:57.324Z,18.50
2023-01-13T05:42:17.236Z,17.60
2023-01-13T05:45:21.815Z,18.17
2023-01-13T05:48:29.133Z,16.33
2023-01-13T05:51:30.712Z,16.45
2023-01-13T05:54:32.559Z,16.08
2023-01-13T05:57:34.138Z,15.17
2023-01-13T06:00:35.772Z,17.27
2023-01-13T06:03:37.498Z,16.52
2023-01-13T06:06:39.178Z,17.45
2023-01-13T06:09:40.785Z,21.15
2023-01-13T06:12:42.385Z,20.13
2023-01-13T06:15:44.026Z,24.92
2023-01-13T06:18:45.628Z,68.93
2023-01-13T06:21:48.687Z,81.72
2023-01-13T06:24:50.828Z,73.55
2023-01-13T06:27:52.458Z,55.77
2023-01-13T06:30:57.878Z,52.58
2023-01-13T06:34:05.381Z,36.00
2023-01-13T06:37:07.087Z,28.35
2023-01-13T06:40:11.919Z,36.30
2023-01-13T06:43:17.141Z,41.67
2023-01-13T06:46:19.150Z,44.80
2023-01-13T06:49:21.797Z,53.47
2023-01-13T06:52:23.691Z,118.72
2023-01-13T06:55:25.355Z,72.43
2023-01-13T06:58:27.017Z,99.93
2023-01-13T07:01:28.856Z,101.15
2023-01-13T07:04:30.530Z,57.03
2023-01-13T07:07:33.619Z,48.13
2023-01-13T07:10:35.336Z,24.83
2023-01-13T07:13:58.659Z,26.13
2023-01-13T07:17:00.363Z,30.85
2023-01-13T07:20:01.973Z,33.30
2023-01-13T07:23:03.723Z,39.72
2023-01-13T07:26:06.008Z,48.75
2023-01-13T07:29:07.622Z,46.70
2023-01-13T07:32:09.485Z,38.28
2023-01-13T07:35:11.131Z,38.15
2023-01-13T07:38:12.947Z,36.90
2023-01-13T07:41:33.288Z,27.65
2023-01-13T07:44:35.099Z,36.65
2023-01-13T07:47:36.690Z,43.25
2023-01-13T07:50:38.379Z,38.40
2023-01-13T07:53:40.047Z,31.27
2023-01-13T07:56:50.413Z,35.47
2023-01-13T07:59:52.097Z,30.80
2023-01-13T08:02:55.001Z,28.95
2023-01-13T08:05:56.699Z,33.83
2023-01-13T08:08:58.646Z,26.92
2023-01-13T08:12:18.688Z,31.02
2023-01-13T08:15:20.341Z,32.22
2023-01-13T08:18:23.056Z,35.90
2023-01-13T08:21:27.785Z,35.90
2023-01-13T08:24:29.432Z,34.95
2023-01-13T08:27:31.152Z,30.57
2023-01-13T08:30:32.758Z,30.70
2023-01-13T08:33:34.555Z,32.28
2023-01-13T08:36:36.095Z,32.00
2023-01-13T08:39:37.742Z,29.73
2023-01-13T08:42:39.374Z,33.75
2023-01-13T08:45:41.077Z,37.28
2023-01-13T08:48:42.687Z,32.60
2023-01-13T08:51:44.749Z,30.10
2023-01-13T08:54:46.488Z,30.92
2023-01-13T08:57:48.419Z,31.23
2023-01-13T09:00:50.007Z,30.38
2023-01-13T09:03:51.661Z,29.23
2023-01-13T09:06:53.704Z,34.03
2023-01-13T09:09:56.998Z,28.95
2023-01-13T09:13:14.045Z,30.52
2023-01-13T09:16:15.756Z,34.92
2023-01-13T09:19:17.391Z,31.85
2023-01-13T09:22:19.328Z,33.88
2023-01-13T09:25:20.899Z,33.13
2023-01-13T09:28:22.556Z,30.77
2023-01-13T09:31:24.223Z,34.67
2023-01-13T09:34:44.743Z,36.22
2023-01-13T09:37:46.578Z,36.43
2023-01-13T09:40:49.113Z,37.90
2023-01-13T09:43:54.042Z,43.20
2023-01-13T09:46:58.516Z,36.88
2023-01-13T09:50:08.573Z,30.48
2023-01-13T09:53:48.291Z,33.47
2023-01-13T09:56:49.890Z,32.17
2023-01-13T09:59:51.455Z,33.33
2023-01-13T10:03:14.869Z,37.80
2023-01-13T10:06:21.963Z,32.53
2023-01-13T10:09:30.813Z,34.00
2023-01-13T10:12:51.029Z,35.97
2023-01-13T10:15:57.989Z,31.02
2023-01-13T10:19:29.472Z,33.03
2023-01-13T10:22:37.155Z,35.00
2023-01-13T10:25:57.477Z,34.78
2023-01-13T10:28:59.187Z,32.25
2023-01-13T10:32:04.353Z,30.20
2023-01-13T10:35:06.247Z,29.70
2023-01-13T10:38:15.612Z,29.38
2023-01-13T10:41:17.992Z,28.02
2023-01-13T10:44:19.605Z,29.80
2023-01-13T10:47:29.114Z,28.38
2023-01-13T10:50:31.555Z,26.90
2023-01-13T10:53:33.184Z,27.77
2023-01-13T10:56:34.916Z,30.83
2023-01-13T10:59:36.603Z,26.93
2023-01-13T11:02:39.061Z,30.98
2023-01-13T11:05:40.727Z,32.78
2023-01-13T11:08:45.358Z,54.72
2023-01-13T11:11:55.551Z,52.50
2023-01-13T11:14:57.336Z,50.10
2023-01-13T11:18:05.545Z,56.33
2023-01-13T11:21:20.394Z,51.42
2023-01-13T11:24:31.138Z,40.57
2023-01-13T11:27:47.585Z,40.97
2023-01-13T11:31:13.887Z,36.60
2023-01-13T11:34:32.629Z,37.08
2023-01-13T11:37:37.384Z,38.60
2023-01-13T11:40:41.788Z,33.58
2023-01-13T11:44:13.322Z,36.08
2023-01-13T11:47:15.132Z,41.75
2023-01-13T11:50:19.424Z,41.25
2023-01-13T11:53:33.108Z,49.28
2023-01-13T11:56:49.663Z,46.58
2023-01-13T12:00:03.958Z,48.92
2023-01-13T12:03:14.266Z,41.50
2023-01-13T12:06:15.951Z,35.97
2023-01-13T12:09:29.538Z,33.17
2023-01-13T12:12:58.898Z,30.70
2023-01-13T12:16:20.744Z,33.97
2023-01-13T12:19:27.878Z,29.48
2023-01-13T12:22:30.527Z,25.60
2023-01-13T12:25:39.614Z,25.05
2023-01-13T12:28:53.721Z,29.97
2023-01-13T12:31:55.401Z,25.33
2023-01-13T12:35:12.233Z,25.13
2023-01-13T12:38:47.946Z,27.73
2023-01-13T12:42:12.723Z,24.20
2023-01-13T12:45:14.638Z,26.35
2023-01-13T12:49:04.879Z,25.08
2023-01-13T12:52:14.523Z,24.38
2023-01-13T12:55:20.402Z,24.40
2023-01-13T12:58:27.509Z,22.35
2023-01-13T13:01:35.887Z,23.65
2023-01-13T13:04:50.539Z,20.23
2023-01-13T13:07:53.579Z,19.95
2023-01-13T13:11:33.562Z,19.88
2023-01-13T13:14:38.230Z,22.83
2023-01-13T13:17:39.866Z,21.85
2023-01-13T13:21:03.773Z,17.80
2023-01-13T13:24:10.508Z,17.88
2023-01-13T13:27:27.684Z,21.13
2023-01-13T13:30:31.175Z,21.92
2023-01-13T13:33:45.361Z,22.33
2023-01-13T13:37:07.233Z,19.20
2023-01-13T13:40:28.414Z,21.10
2023-01-13T13:43:56.659Z,22.33
2023-01-13T13:47:01.463Z,21.43
2023-01-13T13:50:20.665Z,21.08
2023-01-13T13:53:22.757Z,20.88
2023-01-13T13:56:26.038Z,19.67
2023-01-13T13:59:30.620Z,22.73
2023-01-13T14:02:34.720Z,23.33
2023-01-13T14:05:36.871Z,22.10
2023-01-13T14:08:46.624Z,22.50
2023-01-13T14:12:03.579Z,24.73
2023-01-13T14:15:05.678Z,25.65
2023-01-13T14:18:15.719Z,25.67
2023-01-13T14:21:19.701Z,24.23
2023-01-13T14:24:24.547Z,24.33
2023-01-13T14:27:27.774Z,23.13
2023-01-13T14:30:29.410Z,22.92
2023-01-13T14:33:38.890Z,22.83
2023-01-13T14:36:41.659Z,25.40
2023-01-13T14:39:43.265Z,23.08
2023-01-13T14:42:44.840Z,23.30
2023-01-13T14:46:00.234Z,25.38
2023-01-13T14:49:01.992Z,19.97
2023-01-13T14:52:09.717Z,20.42
2023-01-13T14:55:27.509Z,20.70
2023-01-13T14:58:29.079Z,24.48
2023-01-13T15:01:36.421Z,25.23
2023-01-13T15:04:38.307Z,23.35
2023-01-13T15:07:39.940Z,25.23
2023-01-13T15:10:59.773Z,25.95
2023-01-13T15:14:01.658Z,24.50
2023-01-13T15:17:03.414Z,22.85
2023-01-13T15:20:07.190Z,25.50
2023-01-13T15:23:08.768Z,23.02
2023-01-13T15:26:26.959Z,23.13
2023-01-13T15:29:29.343Z,25.05
2023-01-13T15:32:30.878Z,23.98
2023-01-13T15:35:41.059Z,25.73
2023-01-13T15:38:42.656Z,28.42
2023-01-13T15:42:02.608Z,26.67
2023-01-13T15:45:22.935Z,30.02
2023-01-13T15:48:24.894Z,29.73
2023-01-13T15:51:26.485Z,29.67
2023-01-13T15:54:28.078Z,30.02
2023-01-13T15:57:31.765Z,32.33
2023-01-13T16:00:33.485Z,29.48
2023-01-13T16:03:35.102Z,30.33
2023-01-13T16:06:37.311Z,33.67
2023-01-13T16:09:38.935Z,31.67
2023-01-13T16:12:40.514Z,32.00
2023-01-13T16:15:43.860Z,33.57
2023-01-13T16:18:45.619Z,35.67
2023-01-13T16:21:47.326Z,33.67
2023-01-13T16:24:48.986Z,31.35
2023-01-13T16:27:50.942Z,36.27
2023-01-13T16:30:52.567Z,28.83
2023-01-13T16:33:54.284Z,30.65
2023-01-13T16:36:55.962Z,31.48
2023-01-13T16:39:57.649Z,30.27
2023-01-13T16:43:01.055Z,30.27
2023-01-13T16:46:02.960Z,35.00
2023-01-13T16:49:05.479Z,32.53
2023-01-13T16:52:07.153Z,34.70
2023-01-13T16:55:08.947Z,35.53
2023-01-13T16:58:18.081Z,34.38
2023-01-13T17:01:23.629Z,36.30
2023-01-13T17:04:25.409Z,36.67
2023-01-13T17:07:26.974Z,37.15
2023-01-13T17:10:32.256Z,36.58
2023-01-13T17:13:33.875Z,42.13
2023-01-13T17:16:35.667Z,36.67
2023-01-13T17:19:38.796Z,36.83
2023-01-13T17:22:41.374Z,39.58
2023-01-13T17:25:47.251Z,34.47
2023-01-13T17:28:48.869Z,38.47
2023-01-13T17:31:50.897Z,39.63
2023-01-13T17:34:54.023Z,33.85
2023-01-13T17:37:55.938Z,35.13
2023-01-13T17:41:07.617Z,35.47
2023-01-13T17:44:10.475Z,35.83
2023-01-13T17:47:12.093Z,36.55
2023-01-13T17:50:13.687Z,35.80
2023-01-13T17:53:15.257Z,36.40
2023-01-13T17:56:17.251Z,43.78
2023-01-13T17:59:19.451Z,40.05
2023-01-13T18:02:21.272Z,39.22
2023-01-13T18:05:23.045Z,37.10
2023-01-13T18:08:24.637Z,41.15
2023-01-13T18:11:29.419Z,44.05
2023-01-13T18:14:31.101Z,40.20
2023-01-13T18:17:32.724Z,37.40
2023-01-13T18:20:52.681Z,46.00
2023-01-13T18:24:12.829Z,46.55
2023-01-13T18:27:24.186Z,44.10
2023-01-13T18:30:26.662Z,41.40
2023-01-13T18:33:30.136Z,48.03
2023-01-13T18:36:31.728Z,46.47
2023-01-13T18:39:33.408Z,45.00
2023-01-13T18:42:57.894Z,41.90
2023-01-13T18:45:59.583Z,42.15
2023-01-13T18:49:01.193Z,43.05
2023-01-13T18:52:02.790Z,42.90
2023-01-13T18:55:04.595Z,49.95
2023-01-13T18:58:09.259Z,53.20
2023-01-13T19:01:10.954Z,56.30
2023-01-13T19:04:16.199Z,56.20
2023-01-13T19:07:23.408Z,54.88
2023-01-13T19:10:25.108Z,54.03
2023-01-13T19:13:26.697Z,55.05
2023-01-13T19:16:31.610Z,54.03
2023-01-13T19:19:33.224Z,53.47
2023-01-13T19:22:34.919Z,46.72
2023-01-13T19:25:37.056Z,46.47
2023-01-13T19:28:40.149Z,50.38
2023-01-13T19:31:41.730Z,48.28
2023-01-13T19:34:43.913Z,52.45
2023-01-13T19:37:45.763Z,48.80
2023-01-13T19:41:05.045Z,53.33
2023-01-13T19:44:25.167Z,50.17
2023-01-13T19:47:26.802Z,49.40
2023-01-13T19:50:28.573Z,51.63
2023-01-13T19:53:30.387Z,51.38
2023-01-13T19:56:36.049Z,135.88
2023-01-13T19:59:40.904Z,143.20
2023-01-13T20:02:49.129Z,111.18
2023-01-13T20:05:54.014Z,121.47
2023-01-13T20:08:55.609Z,127.35
2023-01-13T20:11:57.171Z,142.43
2023-01-13T20:15:02.847Z,127.43
2023-01-13T20:18:04.500Z,97.10
2023-01-13T20:21:07.086Z,69.25
2023-01-13T20:24:17.093Z,75.70
2023-01-13T20:27:19.070Z,63.00
2023-01-13T20:30:24.978Z,80.90
2023-01-13T20:33:26.578Z,114.18
2023-01-13T20:36:31.379Z,105.30
2023-01-13T20:39:34.047Z,87.68
2023-01-13T20:42:47.530Z,57.17
2023-01-13T20:45:53.486Z,61.60
2023-01-13T20:48:59.025Z,58.80
2023-01-13T20:52:00.613Z,55.85
2023-01-13T20:55:02.247Z,56.65
2023-01-13T20:58:07.418Z,47.22
2023-01-13T21:01:09.047Z,44.63
2023-01-13T21:04:10.816Z,47.45
2023-01-13T21:07:12.422Z,44.78
2023-01-13T21:10:14.093Z,42.05
2023-01-13T21:13:34.106Z,45.83
2023-01-13T21:16:35.710Z,46.78
2023-01-13T21:19:37.335Z,47.88
2023-01-13T21:22:39.106Z,48.70
2023-01-13T21:25:41.151Z,44.30
2023-01-13T21:28:45.454Z,46.70
2023-01-13T21:31:47.169Z,52.85
2023-01-13T21:34:48.764Z,54.90
2023-01-13T21:37:51.056Z,55.53
2023-01-13T21:41:02.792Z,55.53
2023-01-13T21:44:22.986Z,54.33
2023-01-13T21:47:42.801Z,56.75
2023-01-13T21:50:45.321Z,55.37
2023-01-13T21:53:46.903Z,58.03
2023-01-13T21:56:48.477Z,52.92
2023-01-13T21:59:50.051Z,54.55
2023-01-13T22:02:56.083Z,53.53
2023-01-13T22:05:57.692Z,54.90
2023-01-13T22:09:01.048Z,53.20
2023-01-13T22:12:02.653Z,54.97
2023-01-13T22:15:04.740Z,57.37
2023-01-13T22:18:06.456Z,55.60
2023-01-13T22:21:08.104Z,57.67
2023-01-13T22:24:09.689Z,64.05
2023-01-13T22:27:11.331Z,59.70
2023-01-13T22:30:15.793Z,62.92
2023-01-13T22:33:20.541Z,63.70
2023-01-13T22:36:24.048Z,57.17
2023-01-13T22:39:25.800Z,63.58
2023-01-13T22:42:27.369Z,75.32
2023-01-13T22:45:28.940Z,75.55
2023-01-13T22:48:30.606Z,65.37
2023-01-13T22:51:32.209Z,66.65
2023-01-13T22:54:33.862Z,69.43
2023-01-13T22:57:42.578Z,72.35
2023-01-13T23:00:48.758Z,66.23
2023-01-13T23:03:50.429Z,72.43
2023-01-13T23:06:52.002Z,86.40
2023-01-13T23:09:53.553Z,88.22
2023-01-13T23:12:55.135Z,102.45
2023-01-13T23:16:04.458Z,97.15
2023-01-13T23:19:06.360Z,75.10
2023-01-13T23:22:07.956Z,81.80
2023-01-13T23:25:09.815Z,83.25
2023-01-13T23:28:11.426Z,76.47
2023-01-13T23:31:15.290Z,71.63
2023-01-13T23:34:16.951Z,69.07
2023-01-13T23:37:18.565Z,64.72
2023-01-13T23:40:20.164Z,66.35
2023-01-13T23:43:22.186Z,62.78
2023-01-13T23:46:28.101Z,58.17
2023-01-13T23:49:29.688Z,62.55
2023-01-13T23:52:31.378Z,62.63
2023-01-13T23:55:32.955Z,60.58
2023-01-13T23:58:35.057Z,58.03
